createdAt,value
2022-08-19T00:01:30.669Z,72.90
2022-08-19T00:05:32.566Z,72.90
2022-08-19T00:09:34.132Z,73.10
2022-08-19T00:13:35.828Z,73.00
2022-08-19T00:17:37.365Z,73.10
2022-08-19T00:21:44.271Z,73.10
2022-08-19T00:25:48.778Z,75.80
2022-08-19T00:29:52.629Z,73.10
2022-08-19T00:33:54.777Z,73.20
2022-08-19T00:37:56.527Z,73.20
2022-08-19T00:41:58.388Z,72.90
2022-08-19T00:46:00.349Z,72.20
2022-08-19T00:50:01.902Z,72.20
2022-08-19T00:54:03.723Z,71.80
2022-08-19T00:58:08.661Z,71.60
2022-08-19T01:02:10.220Z,71.10
2022-08-19T01:06:11.899Z,71.00
2022-08-19T01:10:16.560Z,70.70
2022-08-19T01:14:18.483Z,70.70
2022-08-19T01:18:20.752Z,70.40
2022-08-19T01:22:28.722Z,70.60
2022-08-19T01:26:31.853Z,70.80
2022-08-19T01:30:35.375Z,70.60
2022-08-19T01:34:39.179Z,70.80
2022-08-19T01:38:44.431Z,70.60
2022-08-19T01:42:46.329Z,70.80
2022-08-19T01:46:48.798Z,70.80
2022-08-19T01:50:50.766Z,71.00
2022-08-19T01:54:52.487Z,71.10
2022-08-19T01:58:56.355Z,71.10
2022-08-19T02:02:57.949Z,70.90
2022-08-19T02:06:59.482Z,71.20
2022-08-19T02:11:01.344Z,71.50
2022-08-19T02:15:04.139Z,72.10
2022-08-19T02:19:05.757Z,75.00
2022-08-19T02:23:13.514Z,73.00
2022-08-19T02:27:15.962Z,73.80
2022-08-19T02:31:19.157Z,74.70
2022-08-19T02:35:21.322Z,74.70
2022-08-19T02:39:22.869Z,75.20
2022-08-19T02:43:25.188Z,75.50
2022-08-19T02:47:26.735Z,75.70
2022-08-19T02:51:29.963Z,75.90
2022-08-19T02:55:31.507Z,75.50
2022-08-19T02:59:47.553Z,75.00
2022-08-19T03:03:49.407Z,75.00
2022-08-19T03:07:51.097Z,74.90
2022-08-19T03:11:52.827Z,75.50
2022-08-19T03:15:54.522Z,75.80
2022-08-19T03:19:56.520Z,76.10
2022-08-19T03:23:58.944Z,76.30
2022-08-19T03:28:00.462Z,76.30
2022-08-19T03:32:04.764Z,76.50
2022-08-19T03:36:12.197Z,76.50
2022-08-19T03:40:13.787Z,76.50
2022-08-19T03:44:20.531Z,76.10
2022-08-19T03:48:22.066Z,76.40
2022-08-19T03:52:23.613Z,76.30
2022-08-19T03:56:28.874Z,76.20
2022-08-19T04:00:30.579Z,76.30
2022-08-19T04:04:32.151Z,76.60
2022-08-19T04:08:33.726Z,76.50
2022-08-19T04:12:35.266Z,76.50
2022-08-19T04:16:37.086Z,76.80
2022-08-19T04:20:42.573Z,76.90
2022-08-19T04:24:44.312Z,77.30
2022-08-19T04:28:46.379Z,77.20
2022-08-19T04:32:47.969Z,77.20
2022-08-19T04:36:51.947Z,77.20
2022-08-19T04:41:12.148Z,76.80
2022-08-19T04:45:14.526Z,76.80
2022-08-19T04:49:17.649Z,76.80
2022-08-19T04:53:20.447Z,76.90
2022-08-19T04:57:21.997Z,77.20
2022-08-19T05:01:29.340Z,76.90
2022-08-19T05:05:32.186Z,76.50
2022-08-19T05:09:58.441Z,76.60
2022-08-19T05:14:00.791Z,76.80
2022-08-19T05:18:21.191Z,76.90
2022-08-19T05:22:38.389Z,77.40
2022-08-19T05:26:40.828Z,77.60
2022-08-19T05:30:47.558Z,77.60
2022-08-19T05:34:49.354Z,77.90
2022-08-19T05:38:51.049Z,77.70
2022-08-19T05:42:55.430Z,78.00
2022-08-19T05:46:57.111Z,78.30
2022-08-19T05:51:00.451Z,78.30
2022-08-19T05:55:02.008Z,78.30
2022-08-19T05:59:03.560Z,78.70
2022-08-19T06:03:12.571Z,79.00
2022-08-19T06:07:16.170Z,79.50
2022-08-19T06:11:19.664Z,79.70
2022-08-19T06:15:23.026Z,80.60
2022-08-19T06:19:30.622Z,81.60
2022-08-19T06:23:32.191Z,82.40
2022-08-19T06:27:34.569Z,83.40
2022-08-19T06:31:37.175Z,84.00
2022-08-19T06:35:39.893Z,84.60
2022-08-19T06:39:43.982Z,85.20
2022-08-19T06:43:45.795Z,85.80
2022-08-19T06:47:49.280Z,86.30
2022-08-19T06:51:51.866Z,87.10
2022-08-19T06:56:03.079Z,87.50
2022-08-19T07:00:07.159Z,88.10
2022-08-19T07:04:11.995Z,89.00
2022-08-19T07:08:14.201Z,89.80
2022-08-19T07:12:16.354Z,90.20
2022-08-19T07:16:20.389Z,90.50
2022-08-19T07:20:31.085Z,90.80
2022-08-19T07:24:33.693Z,90.70
2022-08-19T07:28:35.595Z,90.40
2022-08-19T07:32:37.951Z,90.20
2022-08-19T07:36:41.543Z,90.30
2022-08-19T07:40:43.969Z,90.20
2022-08-19T07:44:50.429Z,90.20
2022-08-19T07:48:52.416Z,90.30
2022-08-19T07:52:53.949Z,90.00
2022-08-19T07:56:55.726Z,90.00
2022-08-19T08:00:57.271Z,90.00
2022-08-19T08:05:17.529Z,90.00
2022-08-19T08:13:29.317Z,90.20
2022-08-19T08:17:49.747Z,90.40
2022-08-19T08:21:54.435Z,90.50
2022-08-19T08:25:57.727Z,90.40
2022-08-19T08:29:59.519Z,90.10
2022-08-19T08:34:04.504Z,90.10
2022-08-19T08:38:06.094Z,90.00
2022-08-19T08:42:20.231Z,89.90
2022-08-19T08:46:32.212Z,89.80
2022-08-19T08:50:36.907Z,90.00
2022-08-19T08:54:48.630Z,90.20
2022-08-19T08:58:55.344Z,91.60
2022-08-19T09:02:58.323Z,90.80
2022-08-19T09:07:18.483Z,91.10
2022-08-19T09:11:46.958Z,91.30
2022-08-19T09:16:13.151Z,91.50
2022-08-19T09:20:17.001Z,91.80
2022-08-19T09:24:19.030Z,92.10
2022-08-19T09:28:22.332Z,92.40
2022-08-19T09:32:26.452Z,92.40
2022-08-19T09:36:34.804Z,92.70
2022-08-19T09:40:38.580Z,93.20
2022-08-19T09:44:41.143Z,93.60
2022-08-19T09:48:43.220Z,94.20
2022-08-19T09:52:55.549Z,94.50
2022-08-19T09:57:01.165Z,95.10
2022-08-19T10:01:07.215Z,95.60
2022-08-19T10:05:27.443Z,96.10
2022-08-19T10:09:34.359Z,96.40
2022-08-19T10:13:36.871Z,96.80
2022-08-19T10:17:38.503Z,97.10
2022-08-19T10:21:41.187Z,97.50
2022-08-19T10:25:43.646Z,98.10
2022-08-19T10:29:46.274Z,98.50
2022-08-19T10:33:54.024Z,98.90
2022-08-19T10:38:02.185Z,99.20
2022-08-19T10:42:07.200Z,99.60
2022-08-19T10:46:16.503Z,99.90
2022-08-19T10:50:37.040Z,99.90
2022-08-19T10:54:58.604Z,99.90
2022-08-19T10:59:07.255Z,99.90
2022-08-19T11:03:09.539Z,99.90
2022-08-19T11:07:12.733Z,99.90
2022-08-19T11:11:14.370Z,99.90
2022-08-19T11:15:16.342Z,99.90
2022-08-19T11:19:20.057Z,99.90
2022-08-19T11:23:21.596Z,99.90
2022-08-19T11:27:23.172Z,99.90
2022-08-19T11:31:29.242Z,99.90
2022-08-19T11:35:31.023Z,99.90
2022-08-19T11:39:33.522Z,99.90
2022-08-19T11:43:37.672Z,99.90
2022-08-19T11:47:39.664Z,99.90
2022-08-19T11:51:43.736Z,99.90
2022-08-19T11:55:45.805Z,99.90
2022-08-19T11:59:51.469Z,99.90
2022-08-19T12:03:54.201Z,99.90
2022-08-19T12:07:56.028Z,99.90
2022-08-19T12:11:57.733Z,99.90
2022-08-19T12:16:00.478Z,99.90
2022-08-19T12:20:02.081Z,99.90
2022-08-19T12:24:04.887Z,99.90
2022-08-19T12:28:06.467Z,99.90
2022-08-19T12:32:08.613Z,99.90
2022-08-19T12:36:14.786Z,99.90
2022-08-19T12:40:18.948Z,99.90
2022-08-19T12:44:21.018Z,99.90
2022-08-19T12:48:33.770Z,99.90
2022-08-19T12:52:41.735Z,99.90
2022-08-19T12:56:43.574Z,99.90
2022-08-19T13:00:45.254Z,99.90
2022-08-19T13:04:46.820Z,99.90
2022-08-19T13:08:48.576Z,99.90
2022-08-19T13:12:51.331Z,99.90
2022-08-19T13:16:52.956Z,99.90
2022-08-19T13:20:54.506Z,99.90
2022-08-19T13:24:56.064Z,99.90
2022-08-19T13:29:36.158Z,99.90
2022-08-19T13:33:37.755Z,99.90
2022-08-19T13:37:42.110Z,99.90
2022-08-19T13:41:48.764Z,99.90
2022-08-19T13:45:56.852Z,99.90
2022-08-19T13:49:58.743Z,99.90
2022-08-19T13:54:00.282Z,99.90
2022-08-19T13:58:04.777Z,99.90
2022-08-19T14:02:06.428Z,99.90
2022-08-19T14:06:08.054Z,99.90
2022-08-19T14:10:14.067Z,99.90
2022-08-19T14:14:16.563Z,99.90
2022-08-19T14:18:18.847Z,99.90
2022-08-19T14:22:22.360Z,99.90
2022-08-19T14:26:24.200Z,99.90
2022-08-19T14:30:28.660Z,99.90
2022-08-19T14:34:32.412Z,99.90
2022-08-19T14:38:34.239Z,99.90
2022-08-19T14:42:35.955Z,99.90
2022-08-19T14:46:37.475Z,99.90
2022-08-19T14:50:39.024Z,99.90
2022-08-19T14:54:40.588Z,99.90
2022-08-19T14:58:42.783Z,99.90
2022-08-19T15:02:47.135Z,99.90
2022-08-19T15:06:48.675Z,99.90
2022-08-19T15:10:50.386Z,99.90
2022-08-19T15:14:56.791Z,99.90
2022-08-19T15:19:00.555Z,99.90
2022-08-19T15:23:02.126Z,99.90
2022-08-19T15:27:03.900Z,99.90
2022-08-19T15:31:05.942Z,99.90
2022-08-19T15:35:08.163Z,99.90
2022-08-19T15:39:10.274Z,99.90
2022-08-19T15:43:11.884Z,99.90
2022-08-19T15:47:14.217Z,99.90
2022-08-19T15:51:16.321Z,99.90
2022-08-19T15:55:32.628Z,99.90
2022-08-19T16:00:00.086Z,99.90
2022-08-19T16:04:23.454Z,99.90
2022-08-19T16:08:25.896Z,99.90
2022-08-19T16:12:30.242Z,99.90
2022-08-19T16:16:33.819Z,99.90
2022-08-19T16:20:36.369Z,99.90
2022-08-19T16:24:38.242Z,99.90
2022-08-19T16:28:40.621Z,99.90
2022-08-19T16:32:43.513Z,99.90
2022-08-19T16:36:45.079Z,99.90
2022-08-19T16:40:49.083Z,99.90
2022-08-19T16:44:50.614Z,99.90
2022-08-19T16:48:52.182Z,99.90
2022-08-19T16:52:53.716Z,99.90
2022-08-19T16:56:56.025Z,99.90
2022-08-19T17:01:03.239Z,99.90
2022-08-19T17:05:07.315Z,99.90
2022-08-19T17:09:08.911Z,99.90
2022-08-19T17:13:10.461Z,99.90
2022-08-19T17:17:12.749Z,99.90
2022-08-19T17:21:14.298Z,99.90
2022-08-19T17:25:15.873Z,99.90
2022-08-19T17:29:17.404Z,99.90
2022-08-19T17:33:19.110Z,99.90
2022-08-19T17:37:20.971Z,99.90
2022-08-19T17:41:24.128Z,99.90
2022-08-19T17:45:25.698Z,99.90
2022-08-19T17:49:27.246Z,99.90
2022-08-19T17:53:28.999Z,99.90
2022-08-19T17:57:30.538Z,99.90
2022-08-19T18:01:52.411Z,99.90
2022-08-19T18:05:53.721Z,99.90
2022-08-19T18:09:55.630Z,99.90
2022-08-19T18:13:57.400Z,99.90
2022-08-19T18:17:58.955Z,99.90
2022-08-19T18:22:00.703Z,99.90
2022-08-19T18:26:03.173Z,99.90
2022-08-19T18:30:06.278Z,99.90
2022-08-19T18:34:10.102Z,99.90
2022-08-19T18:38:31.123Z,99.90
2022-08-19T18:42:51.191Z,99.90
2022-08-19T18:47:11.350Z,99.90
2022-08-19T18:51:14.254Z,99.90
2022-08-19T18:55:17.158Z,99.90
2022-08-19T18:59:21.171Z,99.90
2022-08-19T19:03:24.299Z,99.90
2022-08-19T19:07:27.394Z,99.90
2022-08-19T19:11:30.444Z,99.90
2022-08-19T19:15:32.782Z,99.90
2022-08-19T19:19:34.931Z,99.90
2022-08-19T19:23:40.581Z,99.90
2022-08-19T19:27:42.117Z,99.90
2022-08-19T19:31:44.467Z,99.90
2022-08-19T19:35:47.306Z,99.90
2022-08-19T19:39:49.066Z,99.90
2022-08-19T19:44:16.432Z,99.90
2022-08-19T19:48:16.576Z,99.90
2022-08-19T19:52:18.339Z,99.90
2022-08-19T19:56:22.202Z,99.90
2022-08-19T20:00:25.003Z,99.90
2022-08-19T20:04:27.129Z,99.90
2022-08-19T20:08:47.171Z,99.90
2022-08-19T20:12:48.854Z,99.90
2022-08-19T20:16:51.211Z,99.90
2022-08-19T20:20:52.751Z,99.90
2022-08-19T20:24:54.989Z,99.90
2022-08-19T20:29:09.969Z,99.90
2022-08-19T20:33:15.805Z,99.90
2022-08-19T20:37:17.373Z,99.90
2022-08-19T20:41:19.999Z,99.90
2022-08-19T20:45:32.951Z,99.90
2022-08-19T20:49:35.258Z,99.90
2022-08-19T20:53:37.531Z,99.90
2022-08-19T20:57:39.135Z,99.90
2022-08-19T21:01:40.675Z,99.90
2022-08-19T21:05:42.356Z,99.90
2022-08-19T21:09:44.033Z,99.90
2022-08-19T21:13:45.577Z,99.90
2022-08-19T21:17:48.594Z,99.90
2022-08-19T21:21:50.250Z,99.90
2022-08-19T21:25:54.680Z,99.90
2022-08-19T21:29:56.405Z,99.90
2022-08-19T21:33:58.003Z,99.90
2022-08-19T21:37:59.679Z,99.90
2022-08-19T21:42:01.207Z,99.90
2022-08-19T21:46:03.364Z,99.90
2022-08-19T21:50:05.245Z,99.90
2022-08-19T21:54:06.885Z,99.90
2022-08-19T21:58:15.580Z,99.90
2022-08-19T22:02:21.573Z,99.90
2022-08-19T22:06:25.672Z,99.90
2022-08-19T22:10:28.571Z,99.90
2022-08-19T22:14:30.123Z,99.90
2022-08-19T22:18:31.838Z,99.90
2022-08-19T22:22:33.608Z,99.90
2022-08-19T22:26:35.170Z,99.90
2022-08-19T22:30:38.297Z,99.90
2022-08-19T22:34:40.559Z,99.90
2022-08-19T22:38:42.170Z,99.90
2022-08-19T22:42:43.769Z,99.90
2022-08-19T22:46:45.952Z,99.90
2022-08-19T22:51:08.404Z,99.90
2022-08-19T22:55:10.298Z,99.90
2022-08-19T22:59:12.099Z,99.90
2022-08-19T23:03:13.658Z,99.90
2022-08-19T23:07:15.883Z,99.90
2022-08-19T23:11:17.447Z,99.90
2022-08-19T23:15:24.018Z,99.90
2022-08-19T23:19:25.556Z,99.40
2022-08-19T23:23:27.255Z,99.00
2022-08-19T23:27:47.435Z,98.60
2022-08-19T23:31:49.730Z,98.50
2022-08-19T23:35:52.778Z,98.20
2022-08-19T23:39:54.345Z,97.70
2022-08-19T23:43:55.910Z,97.40
2022-08-19T23:47:58.217Z,96.80
2022-08-19T23:51:59.759Z,96.20
2022-08-19T23:56:01.341Z,95.80
